Time;durP1;ratioP1;P1;durP2;ratioP2;P2;SDS_P1;SDS_P2;PMS_P1;PMS_P2;Temp;Humidity;BMP_temperature;BMP_pressure;BME280_temperature;BME280_humidity;BME280_pressure;Samples;Min_cycle;Max_cycle;Signal;HPM_P1;HPM_P2
2021/06/04 00:00:39;;;;;;;2.80;0.80;;;19.90;73.50;;;;;;4976672;28;20035;-85
2021/06/04 00:03:06;;;;;;;2.70;1.15;;;19.90;73.60;;;;;;4971434;28;20022;-86
2021/06/04 00:05:36;;;;;;;2.42;1.00;;;19.90;73.60;;;;;;5003892;28;20027;-85
2021/06/04 00:08:03;;;;;;;12.50;1.48;;;19.90;73.60;;;;;;4971558;28;20031;-86
2021/06/04 00:10:38;;;;;;;4.90;1.75;;;19.90;73.50;;;;;;4971664;28;20038;-85
2021/06/04 00:13:45;;;;;;;3.55;1.35;;;19.90;73.50;;;;;;4970090;28;20050;-84
2021/06/04 00:16:15;;;;;;;5.45;0.57;;;19.90;73.50;;;;;;4986970;28;20035;-85
2021/06/04 00:18:41;;;;;;;3.00;1.08;;;19.90;73.40;;;;;;4987677;28;20420;-86
2021/06/04 00:21:10;;;;;;;2.30;0.75;;;19.90;73.40;;;;;;4990141;28;20027;-86
2021/06/04 00:23:37;;;;;;;3.10;1.02;;;19.80;73.40;;;;;;4991163;28;20034;-85
2021/06/04 00:26:04;;;;;;;2.03;0.57;;;19.80;73.40;;;;;;4975085;28;20038;-85
2021/06/04 00:28:30;;;;;;;2.38;0.90;;;19.80;73.40;;;;;;4974561;28;20031;-85
2021/06/04 00:30:56;;;;;;;3.13;0.82;;;19.80;73.50;;;;;;4991010;28;20039;-85
2021/06/04 00:33:22;;;;;;;6.55;1.33;;;19.90;73.50;;;;;;4975873;28;20042;-86
2021/06/04 00:35:48;;;;;;;2.65;1.38;;;19.80;74.20;;;;;;4974692;28;20031;-86
2021/06/04 00:38:15;;;;;;;11.35;1.27;;;19.80;73.30;;;;;;4974864;28;20037;-87
2021/06/04 00:40:44;;;;;;;2.05;1.05;;;19.80;73.30;;;;;;4974591;28;20514;-87
2021/06/04 00:43:10;;;;;;;2.83;1.05;;;19.80;73.30;;;;;;4975908;28;20030;-87
2021/06/04 00:45:38;;;;;;;2.92;0.63;;;19.80;73.30;;;;;;4978429;28;20050;-86
2021/06/04 00:48:05;;;;;;;5.05;0.95;;;19.80;73.40;;;;;;4985194;28;20034;-86
2021/06/04 00:50:35;;;;;;;3.90;1.83;;;19.80;73.40;;;;;;4978821;28;20375;-86
2021/06/04 00:53:02;;;;;;;1.85;0.82;;;19.80;73.40;;;;;;4976057;28;20027;-85
2021/06/04 00:55:28;;;;;;;4.03;0.85;;;19.70;73.40;;;;;;4977070;28;20042;-86
2021/06/04 00:57:54;;;;;;;2.85;0.88;;;19.70;73.40;;;;;;5011215;28;20392;-86
2021/06/04 01:00:35;;;;;;;2.42;0.93;;;19.60;73.60;;;;;;5010615;28;20030;-86
2021/06/04 01:03:02;;;;;;;4.88;0.60;;;19.60;73.60;;;;;;4990293;28;20023;-86
2021/06/04 01:05:28;;;;;;;1.75;0.77;;;19.60;73.60;;;;;;4990299;28;20046;-86
2021/06/04 01:08:21;;;;;;;3.00;1.00;;;19.60;73.60;;;;;;4975285;28;20027;-86
2021/06/04 01:11:01;;;;;;;1.85;0.55;;;19.60;73.60;;;;;;4969028;28;20051;-86
2021/06/04 01:13:32;;;;;;;1.77;0.90;;;19.60;73.60;;;;;;4985552;28;20034;-84
2021/06/04 01:16:19;;;;;;;1.95;0.95;;;19.50;73.70;;;;;;4981810;28;20043;-86
2021/06/04 01:19:15;;;;;;;2.75;0.77;;;19.40;73.80;;;;;;4964722;28;20043;-86
2021/06/04 01:21:48;;;;;;;3.75;1.45;;;19.40;73.90;;;;;;4946424;28;20050;-85
2021/06/04 01:24:44;;;;;;;2.55;0.85;;;19.30;74.10;;;;;;4957847;28;20023;-86
2021/06/04 01:27:25;;;;;;;3.45;1.55;;;19.20;74.10;;;;;;4957668;28;20027;-86
2021/06/04 01:30:13;;;;;;;11.60;1.67;;;19.20;74.20;;;;;;4956366;28;20350;-85
2021/06/04 01:32:39;;;;;;;2.25;0.77;;;19.20;75.00;;;;;;4948535;28;20441;-86
2021/06/04 01:35:11;;;;;;;2.00;0.70;;;19.20;74.20;;;;;;4963277;28;20036;-85
2021/06/04 01:37:37;;;;;;;2.70;1.05;;;19.20;74.20;;;;;;4949453;29;20067;-85
2021/06/04 01:40:13;;;;;;;9.20;1.15;;;19.20;74.20;;;;;;4963495;28;20047;-85
2021/06/04 01:42:41;;;;;;;4.78;1.92;;;19.20;74.20;;;;;;4960784;28;20179;-86
2021/06/04 01:45:17;;;;;;;2.75;1.40;;;19.20;74.10;;;;;;4955666;28;20032;-84
2021/06/04 01:47:53;;;;;;;5.72;1.55;;;19.20;74.10;;;;;;4972457;28;20621;-87
2021/06/04 01:50:23;;;;;;;3.42;1.45;;;19.20;74.00;;;;;;4954193;28;20421;-86
2021/06/04 01:52:50;;;;;;;4.35;1.05;;;19.30;74.10;;;;;;4954356;28;20027;-84
2021/06/04 01:55:22;;;;;;;6.78;0.70;;;19.30;74.10;;;;;;4970309;28;20389;-85
2021/06/04 01:57:56;;;;;;;2.42;0.77;;;19.30;74.00;;;;;;4954167;28;20393;-85
2021/06/04 02:00:28;;;;;;;4.90;1.55;;;19.30;74.00;;;;;;4958512;28;20492;-84
2021/06/04 02:02:54;;;;;;;3.70;1.40;;;19.30;74.00;;;;;;4969748;28;20034;-86
2021/06/04 02:05:22;;;;;;;6.45;1.80;;;19.20;74.00;;;;;;4964141;28;20484;-85
2021/06/04 02:07:48;;;;;;;2.22;1.02;;;19.20;74.00;;;;;;4949551;28;20038;-86
2021/06/04 02:10:20;;;;;;;1.70;0.68;;;19.30;74.10;;;;;;5004119;28;20030;-85
2021/06/04 02:12:48;;;;;;;5.30;2.10;;;19.30;74.10;;;;;;4952906;28;20061;-85
2021/06/04 02:15:17;;;;;;;3.45;1.10;;;19.30;74.10;;;;;;4983637;28;20038;-86
2021/06/04 02:18:02;;;;;;;6.20;1.38;;;19.30;74.10;;;;;;4954936;28;20047;-85
2021/06/04 02:20:47;;;;;;;1.67;0.63;;;19.20;74.10;;;;;;4968201;28;20042;-84
2021/06/04 02:23:32;;;;;;;7.07;1.23;;;19.20;74.00;;;;;;4969181;28;20480;-84
2021/06/04 02:26:29;;;;;;;8.48;1.52;;;19.20;74.10;;;;;;4955493;28;20066;-84
2021/06/04 02:29:02;;;;;;;3.40;1.65;;;19.20;74.30;;;;;;4967699;28;20276;-83
2021/06/04 02:31:42;;;;;;;2.90;1.45;;;19.10;74.20;;;;;;4953660;28;20023;-85
2021/06/04 02:34:18;;;;;;;2.78;0.93;;;19.10;74.40;;;;;;4971612;28;20031;-85
2021/06/04 02:37:07;;;;;;;3.53;1.33;;;19.10;74.40;;;;;;4971335;28;20411;-83
2021/06/04 02:39:42;;;;;;;2.50;1.20;;;19.10;74.40;;;;;;4973247;28;20111;-85
2021/06/04 02:42:10;;;;;;;6.45;1.33;;;19.10;74.20;;;;;;4972485;28;20031;-85
2021/06/04 02:44:47;;;;;;;3.28;1.13;;;19.20;74.30;;;;;;4971233;28;20026;-84
2021/06/04 02:47:38;;;;;;;2.70;0.85;;;19.20;74.30;;;;;;4985574;28;20035;-85
2021/06/04 02:50:17;;;;;;;3.35;1.70;;;19.20;74.30;;;;;;4961519;28;20050;-84
2021/06/04 02:52:43;;;;;;;2.67;1.02;;;19.10;74.20;;;;;;4956618;28;20038;-85
2021/06/04 02:55:16;;;;;;;2.58;1.00;;;19.10;74.40;;;;;;4993264;28;20468;-84
2021/06/04 02:57:42;;;;;;;2.78;1.35;;;19.10;74.50;;;;;;5008991;28;20512;-84
2021/06/04 03:00:25;;;;;;;6.55;1.17;;;19.00;74.40;;;;;;4977053;28;20050;-84
2021/06/04 03:02:51;;;;;;;7.25;1.60;;;19.00;74.50;;;;;;4972109;28;20030;-85
2021/06/04 03:05:24;;;;;;;2.33;0.98;;;18.90;74.50;;;;;;4973271;28;20057;-84
2021/06/04 03:07:50;;;;;;;2.30;0.85;;;18.90;74.70;;;;;;4956726;28;20384;-85
2021/06/04 03:10:25;;;;;;;2.95;0.88;;;18.90;74.70;;;;;;4972750;28;20392;-85
2021/06/04 03:12:51;;;;;;;3.80;1.50;;;18.90;74.60;;;;;;4987745;28;20037;-84
2021/06/04 03:15:29;;;;;;;2.55;1.15;;;18.90;74.60;;;;;;4971552;28;20035;-85
2021/06/04 03:17:55;;;;;;;4.85;1.73;;;18.90;74.70;;;;;;4971860;28;20469;-85
2021/06/04 03:20:25;;;;;;;4.28;1.08;;;18.90;74.70;;;;;;4988319;28;20039;-84
2021/06/04 03:22:51;;;;;;;2.97;1.05;;;18.90;74.80;;;;;;4956939;28;20023;-84
2021/06/04 03:25:38;;;;;;;3.03;1.17;;;18.80;74.80;;;;;;4969568;28;20027;-85
2021/06/04 03:28:05;;;;;;;3.22;1.13;;;18.80;74.80;;;;;;4972376;28;20060;-84
2021/06/04 03:30:33;;;;;;;4.47;1.05;;;18.70;74.80;;;;;;4975296;28;20042;-85
2021/06/04 03:32:59;;;;;;;1.38;0.63;;;18.60;74.90;;;;;;4982354;28;20034;-85
2021/06/04 03:35:26;;;;;;;1.50;0.70;;;18.50;75.10;;;;;;4975839;28;20049;-84
2021/06/04 03:37:52;;;;;;;5.03;0.65;;;18.50;75.20;;;;;;4972269;28;20270;-83
2021/06/04 03:40:19;;;;;;;7.93;1.38;;;18.40;75.30;;;;;;4976477;28;20058;-85
2021/06/04 03:42:45;;;;;;;2.60;1.05;;;18.40;75.30;;;;;;4958203;28;20043;-84
2021/06/04 03:45:15;;;;;;;3.15;1.10;;;18.40;75.40;;;;;;4975332;28;20369;-85
2021/06/04 03:47:41;;;;;;;5.57;0.95;;;18.30;75.40;;;;;;4971815;28;20373;-85
2021/06/04 03:50:08;;;;;;;2.30;0.80;;;18.30;75.50;;;;;;4972598;28;20027;-85
2021/06/04 03:52:34;;;;;;;3.03;1.30;;;18.30;75.50;;;;;;4972942;28;20038;-85
2021/06/04 03:55:00;;;;;;;3.45;0.82;;;18.30;75.50;;;;;;4989636;28;20042;-85
2021/06/04 03:57:29;;;;;;;3.22;0.82;;;18.30;75.50;;;;;;4975396;28;20384;-86
2021/06/04 03:59:55;;;;;;;3.58;0.95;;;18.30;75.50;;;;;;4991472;28;20038;-85
2021/06/04 04:02:23;;;;;;;1.75;0.47;;;18.20;75.40;;;;;;4976182;28;20046;-85
2021/06/04 04:04:50;;;;;;;2.17;0.70;;;18.20;75.40;;;;;;4959684;28;20510;-86
2021/06/04 04:07:16;;;;;;;4.45;1.27;;;18.20;75.50;;;;;;4975910;28;20027;-85
2021/06/04 04:09:42;;;;;;;3.95;0.90;;;18.20;75.50;;;;;;4976398;28;20039;-85
2021/06/04 04:12:09;;;;;;;2.80;0.95;;;18.20;75.50;;;;;;4975110;28;20034;-86
2021/06/04 04:14:35;;;;;;;1.83;0.60;;;18.20;75.40;;;;;;4976233;28;20082;-85
2021/06/04 04:17:01;;;;;;;0.90;0.60;;;18.20;75.40;;;;;;4986587;28;20396;-85
2021/06/04 04:19:27;;;;;;;3.22;0.90;;;18.30;75.40;;;;;;4977723;28;20392;-85
2021/06/04 04:21:54;;;;;;;5.93;1.13;;;18.20;75.30;;;;;;4995923;28;20023;-85
2021/06/04 04:24:27;;;;;;;3.13;0.68;;;18.20;75.30;;;;;;4976052;28;20039;-85
2021/06/04 04:26:54;;;;;;;1.48;0.38;;;18.10;75.40;;;;;;5004829;28;20030;-84
2021/06/04 04:29:20;;;;;;;2.47;0.93;;;18.00;75.50;;;;;;5011077;28;20026;-85
2021/06/04 04:31:48;;;;;;;1.60;0.63;;;17.90;75.60;;;;;;4974617;28;20210;-85
2021/06/04 04:34:15;;;;;;;12.85;0.95;;;17.80;75.70;;;;;;5007228;28;20046;-85
2021/06/04 04:36:44;;;;;;;2.35;0.52;;;17.80;75.80;;;;;;4955536;28;20589;-84
2021/06/04 04:39:12;;;;;;;2.28;0.57;;;17.70;75.80;;;;;;4986042;28;20404;-85
2021/06/04 04:41:38;;;;;;;2.13;0.80;;;17.70;75.80;;;;;;4990743;28;20035;-84
2021/06/04 04:44:05;;;;;;;2.20;0.90;;;17.70;75.80;;;;;;4974337;28;20054;-84
2021/06/04 04:46:31;;;;;;;2.40;0.40;;;17.70;75.80;;;;;;4968550;28;20046;-84
2021/06/04 04:48:57;;;;;;;2.55;1.00;;;17.70;75.70;;;;;;4980094;28;20039;-85
2021/06/04 04:51:24;;;;;;;1.70;0.60;;;17.70;75.60;;;;;;4987112;28;20030;-85
2021/06/04 04:53:51;;;;;;;1.52;0.52;;;17.70;75.60;;;;;;4985890;28;20046;-84
2021/06/04 04:56:19;;;;;;;2.83;0.85;;;17.70;76.50;;;;;;4978005;28;20042;-85
2021/06/04 04:58:45;;;;;;;3.00;0.65;;;17.70;75.70;;;;;;4976047;28;20031;-84
2021/06/04 05:01:12;;;;;;;0.98;0.50;;;17.60;75.70;;;;;;5011105;28;20488;-85
2021/06/04 05:03:38;;;;;;;1.02;0.43;;;17.60;75.70;;;;;;4973796;28;20023;-85
2021/06/04 05:06:04;;;;;;;1.25;0.50;;;17.60;75.80;;;;;;4989342;28;20116;-85
2021/06/04 05:08:30;;;;;;;2.40;0.50;;;17.50;75.70;;;;;;4975187;28;20029;-85
2021/06/04 05:10:57;;;;;;;1.20;0.55;;;17.40;75.70;;;;;;4957982;28;20069;-84
2021/06/04 05:13:23;;;;;;;0.50;0.17;;;17.40;75.90;;;;;;4974593;28;20400;-85
2021/06/04 05:15:49;;;;;;;2.58;1.13;;;17.30;75.80;;;;;;4973319;28;20030;-85
2021/06/04 05:18:15;;;;;;;0.45;0.20;;;17.30;75.80;;;;;;4973571;28;20035;-84
2021/06/04 05:20:43;;;;;;;1.95;0.50;;;17.30;75.90;;;;;;4990110;28;20408;-85
2021/06/04 05:23:09;;;;;;;1.15;0.30;;;17.30;75.90;;;;;;4957933;28;20039;-84
2021/06/04 05:25:40;;;;;;;1.48;0.85;;;17.30;75.80;;;;;;4958055;28;20050;-84
2021/06/04 05:28:07;;;;;;;1.60;0.75;;;17.30;75.80;;;;;;4974298;28;20365;-84
2021/06/04 05:30:36;;;;;;;1.20;0.20;;;17.30;75.70;;;;;;4989417;28;20034;-85
2021/06/04 05:33:03;;;;;;;1.17;0.52;;;17.30;75.70;;;;;;4973440;28;20015;-84
2021/06/04 05:35:29;;;;;;;1.63;0.63;;;17.30;75.60;;;;;;4957072;28;20050;-84
2021/06/04 05:37:56;;;;;;;1.50;0.47;;;17.30;75.60;;;;;;4973915;28;20027;-84
2021/06/04 05:40:25;;;;;;;0.17;0.05;;;17.40;75.70;;;;;;4957959;28;20047;-83
2021/06/04 05:42:51;;;;;;;1.85;0.35;;;17.40;75.70;;;;;;4973821;28;20027;-84
2021/06/04 05:45:18;;;;;;;1.98;0.70;;;17.40;75.60;;;;;;4975937;28;20046;-83
2021/06/04 05:47:45;;;;;;;1.00;0.43;;;17.40;75.60;;;;;;4985593;28;20035;-84
2021/06/04 05:50:14;;;;;;;0.50;0.20;;;17.30;75.60;;;;;;4976208;28;20045;-85
2021/06/04 05:52:41;;;;;;;0.88;0.40;;;17.30;75.60;;;;;;4974471;28;20039;-84
2021/06/04 05:55:10;;;;;;;3.30;0.60;;;17.20;75.80;;;;;;5010541;28;20027;-84
2021/06/04 05:57:36;;;;;;;1.00;0.55;;;17.20;75.90;;;;;;4993558;28;20026;-84
2021/06/04 06:00:07;;;;;;;0.95;0.28;;;17.20;75.90;;;;;;4993196;28;20055;-80
2021/06/04 06:02:33;;;;;;;1.50;0.80;;;17.10;75.90;;;;;;4972617;28;20031;-83
2021/06/04 06:04:59;;;;;;;1.98;0.55;;;17.10;75.90;;;;;;4974289;28;20039;-83
2021/06/04 06:07:25;;;;;;;2.60;0.57;;;17.10;75.80;;;;;;4974403;28;20027;-83
2021/06/04 06:09:51;;;;;;;0.98;0.30;;;17.10;75.70;;;;;;4974470;28;20031;-85
2021/06/04 06:12:17;;;;;;;3.00;0.80;;;17.10;75.70;;;;;;4974043;28;20027;-85
2021/06/04 06:14:43;;;;;;;2.70;0.40;;;17.20;75.70;;;;;;4972585;28;20412;-84
2021/06/04 06:17:10;;;;;;;2.70;0.40;;;17.10;75.70;;;;;;4985202;28;20027;-84
2021/06/04 06:19:36;;;;;;;1.67;0.35;;;17.10;75.60;;;;;;4975612;28;20053;-84
2021/06/04 06:22:02;;;;;;;3.22;0.45;;;17.00;75.60;;;;;;5010083;28;20046;-83
2021/06/04 06:24:28;;;;;;;0.93;0.25;;;17.00;75.80;;;;;;4992966;28;20042;-84
2021/06/04 06:26:54;;;;;;;1.10;0.30;;;16.90;75.90;;;;;;5009722;28;20054;-84
2021/06/04 06:29:20;;;;;;;0.40;0.15;;;16.80;75.90;;;;;;4977341;28;20023;-85
2021/06/04 06:31:48;;;;;;;3.55;0.30;;;16.80;76.10;;;;;;4972741;28;20396;-84
2021/06/04 06:34:14;;;;;;;0.20;0.08;;;16.70;76.10;;;;;;4989040;28;20384;-84
2021/06/04 06:36:41;;;;;;;1.75;0.10;;;16.70;76.20;;;;;;4972586;28;20043;-84
2021/06/04 06:39:36;;;;;;;0.30;0.10;;;16.60;76.30;;;;;;4988580;28;20499;-84
2021/06/04 06:42:04;;;;;;;0.30;0.10;;;16.50;76.40;;;;;;4968891;28;20123;-83
2021/06/04 06:44:32;;;;;;;0.60;0.45;;;16.40;76.40;;;;;;4971915;28;20030;-84
2021/06/04 06:46:58;;;;;;;0.25;0.10;;;16.30;76.50;;;;;;4983335;28;20043;-84
2021/06/04 06:49:24;;;;;;;0.52;0.10;;;16.30;76.60;;;;;;4975898;28;20373;-84
2021/06/04 06:51:50;;;;;;;0.47;0.17;;;16.20;76.60;;;;;;4977962;28;20396;-84
2021/06/04 06:54:19;;;;;;;0.00;0.00;;;16.20;76.60;;;;;;4976631;28;20392;-84
2021/06/04 06:56:46;;;;;;;0.35;0.10;;;16.20;76.60;;;;;;4976463;28;20499;-83
2021/06/04 06:59:13;;;;;;;1.27;0.22;;;16.20;76.60;;;;;;4974610;28;20030;-85
2021/06/04 07:01:39;;;;;;;0.32;0.10;;;16.20;76.60;;;;;;4973233;28;20047;-84
2021/06/04 07:04:05;;;;;;;0.35;0.10;;;16.20;76.60;;;;;;4988929;28;20030;-85
2021/06/04 07:06:32;;;;;;;0.22;0.10;;;16.20;76.60;;;;;;4988272;28;20023;-85
2021/06/04 07:08:58;;;;;;;3.50;0.20;;;16.20;76.50;;;;;;4988171;28;20480;-84
2021/06/04 07:11:26;;;;;;;0.00;0.00;;;16.20;76.50;;;;;;4988101;28;20042;-85
2021/06/04 07:13:53;;;;;;;0.28;0.08;;;16.20;76.40;;;;;;4971864;28;20035;-85
2021/06/04 07:16:20;;;;;;;0.00;0.00;;;16.20;76.40;;;;;;4982688;28;20057;-85
2021/06/04 07:18:50;;;;;;;0.43;0.20;;;16.20;76.40;;;;;;4976235;28;20484;-83
2021/06/04 07:21:16;;;;;;;0.43;0.05;;;16.30;76.30;;;;;;4976250;28;20046;-85
2021/06/04 07:23:42;;;;;;;0.63;0.38;;;16.30;76.20;;;;;;4976300;28;20031;-84
2021/06/04 07:26:08;;;;;;;0.90;0.22;;;16.30;76.10;;;;;;4974329;28;20403;-85
2021/06/04 07:28:35;;;;;;;1.27;0.30;;;16.30;76.10;;;;;;4974869;28;20074;-85
2021/06/04 07:31:03;;;;;;;0.55;0.38;;;16.40;76.10;;;;;;4993433;28;20515;-85
2021/06/04 07:33:32;;;;;;;1.60;0.55;;;16.40;76.10;;;;;;4975820;28;20030;-85
2021/06/04 07:35:59;;;;;;;0.00;0.00;;;16.50;76.00;;;;;;4975920;28;20034;-85
2021/06/04 07:38:25;;;;;;;0.20;0.10;;;16.50;76.00;;;;;;4992081;28;20045;-85
2021/06/04 07:40:52;;;;;;;0.10;0.00;;;16.40;75.90;;;;;;4975963;28;20404;-85
2021/06/04 07:43:21;;;;;;;0.00;0.00;;;16.40;75.90;;;;;;4992069;28;20027;-85
2021/06/04 07:45:47;;;;;;;0.20;0.00;;;16.40;75.90;;;;;;4975378;28;20531;-84
2021/06/04 07:48:13;;;;;;;0.52;0.32;;;16.40;76.00;;;;;;4991948;28;20353;-85
2021/06/04 07:50:41;;;;;;;0.17;0.00;;;16.30;76.10;;;;;;4975507;28;20030;-85
2021/06/04 07:53:11;;;;;;;0.30;0.00;;;16.30;76.10;;;;;;4975570;28;20476;-84
2021/06/04 07:55:37;;;;;;;0.65;0.10;;;16.30;76.10;;;;;;4959674;28;20373;-84
2021/06/04 07:58:04;;;;;;;0.00;0.00;;;16.30;76.10;;;;;;4992006;28;20057;-85
2021/06/04 08:00:30;;;;;;;0.25;0.10;;;16.30;76.10;;;;;;4974870;28;20046;-85
2021/06/04 08:02:56;;;;;;;0.10;0.08;;;16.40;76.10;;;;;;4991582;28;20037;-85
2021/06/04 08:05:23;;;;;;;3.80;0.15;;;16.40;76.00;;;;;;4991535;28;20069;-85
2021/06/04 08:07:49;;;;;;;0.00;0.00;;;16.40;76.00;;;;;;4975315;28;20027;-84
2021/06/04 08:10:15;;;;;;;0.15;0.13;;;16.30;75.90;;;;;;4991942;28;20503;-84
2021/06/04 08:12:43;;;;;;;0.28;0.03;;;16.30;75.90;;;;;;4976134;28;20066;-86
2021/06/04 08:15:14;;;;;;;0.00;0.00;;;16.30;76.00;;;;;;4958748;28;20476;-85
2021/06/04 08:17:41;;;;;;;0.00;0.00;;;16.30;76.00;;;;;;4988395;28;20360;-85
2021/06/04 08:20:09;;;;;;;0.65;0.00;;;16.30;75.90;;;;;;4977070;28;20027;-85
2021/06/04 08:22:37;;;;;;;0.52;0.10;;;16.30;76.00;;;;;;4976982;28;20042;-85
2021/06/04 08:25:04;;;;;;;0.52;0.10;;;16.30;76.00;;;;;;4994049;28;20030;-84
2021/06/04 08:27:30;;;;;;;0.38;0.00;;;16.30;75.90;;;;;;5011455;28;20054;-84
2021/06/04 08:29:56;;;;;;;0.00;0.00;;;16.20;75.90;;;;;;5011504;28;20023;-85
2021/06/04 08:32:22;;;;;;;0.10;0.00;;;16.20;75.80;;;;;;4975641;28;20404;-85
2021/06/04 08:34:48;;;;;;;1.10;0.08;;;16.20;76.00;;;;;;4974793;28;20027;-84
2021/06/04 08:37:14;;;;;;;1.38;0.85;;;16.20;75.90;;;;;;4976451;28;20026;-85
2021/06/04 08:39:43;;;;;;;0.05;0.00;;;16.30;75.80;;;;;;4974801;28;20473;-85
2021/06/04 08:42:29;;;;;;;0.03;0.00;;;16.40;75.70;;;;;;4974632;28;20477;-85
2021/06/04 08:45:22;;;;;;;0.22;0.08;;;16.50;75.50;;;;;;4974228;28;20042;-85
2021/06/04 08:47:51;;;;;;;0.00;0.00;;;16.50;75.30;;;;;;4985697;28;20046;-84
2021/06/04 08:51:02;;;;;;;0.08;0.05;;;16.50;75.10;;;;;;4961954;28;20050;-85
2021/06/04 08:53:30;;;;;;;0.00;0.00;;;16.60;75.20;;;;;;4939547;29;20043;-85
2021/06/04 08:56:04;;;;;;;0.22;0.00;;;16.70;75.10;;;;;;4951739;29;20055;-85
2021/06/04 08:58:39;;;;;;;0.00;0.00;;;16.70;74.90;;;;;;4951736;29;20392;-84
2021/06/04 09:01:29;;;;;;;0.00;0.00;;;16.80;74.70;;;;;;4954288;28;20262;-84
2021/06/04 09:04:00;;;;;;;1.55;0.10;;;16.80;74.60;;;;;;4941824;29;20043;-84
2021/06/04 09:06:38;;;;;;;0.00;0.00;;;16.90;74.50;;;;;;4949753;28;20104;-84
2021/06/04 09:09:21;;;;;;;0.00;0.00;;;17.00;74.50;;;;;;4948666;29;20031;-84
2021/06/04 09:11:50;;;;;;;0.08;0.00;;;17.00;74.40;;;;;;4935141;29;20035;-82
2021/06/04 09:14:17;;;;;;;0.20;0.00;;;17.00;74.40;;;;;;4949922;28;20023;-85
2021/06/04 09:17:22;;;;;;;0.47;0.05;;;17.00;74.30;;;;;;4953356;28;20031;-85
2021/06/04 09:19:57;;;;;;;0.20;0.10;;;17.00;74.30;;;;;;4940076;29;20055;-84
2021/06/04 09:22:24;;;;;;;0.30;0.17;;;17.10;74.30;;;;;;4935118;29;20046;-83
2021/06/04 09:24:51;;;;;;;0.00;0.00;;;17.00;74.20;;;;;;4949125;28;20039;-85
2021/06/04 09:27:50;;;;;;;0.30;0.00;;;17.10;74.30;;;;;;4926132;29;20051;-84
2021/06/04 09:30:36;;;;;;;0.10;0.08;;;17.00;74.30;;;;;;4939851;28;20054;-84
2021/06/04 09:33:13;;;;;;;0.52;0.08;;;17.10;74.30;;;;;;4956806;28;20030;-84
2021/06/04 09:36:12;;;;;;;0.00;0.00;;;17.10;74.20;;;;;;4973717;28;20038;-84
2021/06/04 09:39:13;;;;;;;0.10;0.00;;;17.10;74.10;;;;;;4954722;28;20528;-84
2021/06/04 09:41:41;;;;;;;0.03;0.00;;;17.10;74.00;;;;;;4939289;28;20051;-85
2021/06/04 09:44:10;;;;;;;0.00;0.00;;;17.00;73.90;;;;;;4970579;28;20130;-84
2021/06/04 09:46:54;;;;;;;0.43;0.28;;;17.10;74.00;;;;;;4970171;28;20529;-82
2021/06/04 09:49:35;;;;;;;0.15;0.00;;;17.10;73.90;;;;;;4969212;28;20423;-84
2021/06/04 09:52:28;;;;;;;7.40;0.28;;;17.00;73.80;;;;;;4972565;28;20034;-84
2021/06/04 09:55:22;;;;;;;0.10;0.00;;;17.00;73.80;;;;;;4971920;28;20045;-84
2021/06/04 09:58:17;;;;;;;0.10;0.00;;;17.00;73.90;;;;;;4972319;28;20113;-84
2021/06/04 10:00:45;;;;;;;0.10;0.00;;;17.00;73.90;;;;;;4967224;28;20049;-84
2021/06/04 10:03:31;;;;;;;2.40;0.00;;;17.00;73.80;;;;;;4967950;28;20026;-84
2021/06/04 10:06:08;;;;;;;0.50;0.10;;;17.00;73.70;;;;;;4967762;28;20047;-84
2021/06/04 10:08:47;;;;;;;0.20;0.08;;;17.00;73.70;;;;;;4967412;28;20039;-82
2021/06/04 10:11:21;;;;;;;0.03;0.00;;;17.00;74.50;;;;;;4969363;28;20031;-85
2021/06/04 10:14:32;;;;;;;0.00;0.00;;;17.00;73.70;;;;;;4955329;28;20035;-82
2021/06/04 10:17:48;;;;;;;0.20;0.00;;;17.00;73.70;;;;;;4970855;28;20034;-82
2021/06/04 10:19:46;;;;;;;0.10;0.00;;;17.00;73.60;;;;;;4949980;28;20504;-83
2021/06/04 10:22:32;;;;;;;0.15;0.10;;;17.00;73.70;;;;;;4989187;28;20042;-85
2021/06/04 10:24:58;;;;;;;0.45;0.10;;;17.00;73.60;;;;;;5005369;28;20465;-84
2021/06/04 10:27:33;;;;;;;0.28;0.13;;;17.00;73.60;;;;;;4988512;28;20031;-82
2021/06/04 10:30:11;;;;;;;0.20;0.10;;;17.10;73.60;;;;;;4973694;28;20492;-84
2021/06/04 10:32:50;;;;;;;2.40;0.70;;;17.10;73.50;;;;;;4985369;28;20495;-84
2021/06/04 10:35:18;;;;;;;0.50;0.20;;;17.10;73.50;;;;;;4958620;28;20514;-85
2021/06/04 10:38:19;;;;;;;0.77;0.47;;;17.00;73.50;;;;;;4972966;28;20027;-85
2021/06/04 10:40:50;;;;;;;0.45;0.25;;;17.00;73.60;;;;;;4983069;28;20058;-85
2021/06/04 10:43:30;;;;;;;0.08;0.00;;;17.00;73.60;;;;;;5009397;28;20388;-86
2021/06/04 10:46:05;;;;;;;1.55;0.20;;;17.00;73.70;;;;;;5008409;28;20050;-86
2021/06/04 10:49:09;;;;;;;1.88;0.10;;;17.00;73.70;;;;;;4973481;28;20039;-86
2021/06/04 10:51:54;;;;;;;0.32;0.25;;;17.00;73.80;;;;;;4973136;28;20027;-86
2021/06/04 10:54:32;;;;;;;8.40;0.63;;;16.90;73.80;;;;;;4955980;28;20058;-86
2021/06/04 10:57:03;;;;;;;0.85;0.10;;;16.90;73.90;;;;;;4972147;28;20042;-84
2021/06/04 10:59:35;;;;;;;;;;;16.90;73.90;;;;;;4973978;28;20030;-86
2021/06/04 11:02:41;;;;;;;0.55;0.40;;;17.00;73.80;;;;;;5016168;28;19918;-85
2021/06/04 11:05:29;;;;;;;0.20;0.03;;;17.00;73.80;;;;;;4960076;28;20031;-85
2021/06/04 11:08:14;;;;;;;0.63;0.15;;;17.00;73.80;;;;;;4989928;28;20039;-84
2021/06/04 11:11:11;;;;;;;0.45;0.20;;;17.00;73.90;;;;;;4973281;28;20400;-84
2021/06/04 11:13:55;;;;;;;0.10;0.00;;;16.90;73.90;;;;;;4987298;28;20027;-84
2021/06/04 11:16:41;;;;;;;0.88;0.20;;;16.90;74.10;;;;;;4985231;28;20388;-85
2021/06/04 11:19:26;;;;;;;0.10;0.00;;;16.80;74.20;;;;;;4976841;28;20035;-84
2021/06/04 11:21:55;;;;;;;0.00;0.00;;;16.80;74.30;;;;;;4977614;28;20115;-85
2021/06/04 11:24:51;;;;;;;0.77;0.13;;;16.80;74.30;;;;;;4976216;28;20030;-81
2021/06/04 11:27:45;;;;;;;2.55;0.45;;;16.80;74.40;;;;;;4976187;28;20053;-85
2021/06/04 11:30:16;;;;;;;0.30;0.00;;;16.80;74.50;;;;;;4975661;28;20043;-84
2021/06/04 11:32:51;;;;;;;;;;;16.80;74.50;;;;;;4972413;28;20031;-84
2021/06/04 11:35:20;;;;;;;0.32;0.15;;;16.80;74.50;;;;;;5003958;28;19910;-85
2021/06/04 11:37:56;;;;;;;0.22;0.10;;;16.80;74.40;;;;;;4971932;28;20027;-85
2021/06/04 11:40:30;;;;;;;1.08;0.30;;;16.80;74.40;;;;;;4983718;28;20357;-83
2021/06/04 11:43:02;;;;;;;0.30;0.10;;;16.80;74.50;;;;;;4986885;28;20042;-85
2021/06/04 11:45:28;;;;;;;2.53;0.20;;;16.80;74.50;;;;;;4987104;28;20038;-85
2021/06/04 11:47:55;;;;;;;0.25;0.08;;;16.90;74.50;;;;;;4971797;28;20027;-84
2021/06/04 11:50:30;;;;;;;0.38;0.20;;;16.90;75.30;;;;;;4971563;28;20031;-86
2021/06/04 11:53:28;;;;;;;0.28;0.10;;;17.00;74.60;;;;;;4957272;28;20656;-86
2021/06/04 11:55:54;;;;;;;0.28;0.10;;;17.00;74.60;;;;;;4987314;28;20069;-86
2021/06/04 11:58:30;;;;;;;0.75;0.30;;;17.00;74.60;;;;;;4972587;28;20030;-86
2021/06/04 12:01:10;;;;;;;0.00;0.00;;;17.00;74.60;;;;;;4979436;28;20518;-85
2021/06/04 12:03:37;;;;;;;0.90;0.25;;;17.00;74.60;;;;;;4978135;28;20038;-86
2021/06/04 12:06:26;;;;;;;0.52;0.08;;;17.10;74.60;;;;;;4975976;28;20035;-86
2021/06/04 12:08:53;;;;;;;0.70;0.40;;;17.10;74.60;;;;;;4975766;28;20392;-85
2021/06/04 12:11:19;;;;;;;4.38;0.17;;;17.20;74.40;;;;;;4975415;28;20018;-85
2021/06/04 12:14:05;;;;;;;0.52;0.10;;;17.30;74.30;;;;;;4973418;28;20518;-88
2021/06/04 12:16:33;;;;;;;0.20;0.10;;;17.40;74.30;;;;;;5002291;28;20031;-86
2021/06/04 12:19:16;;;;;;;0.73;0.15;;;17.50;74.10;;;;;;4995674;28;20045;-86
2021/06/04 12:21:43;;;;;;;0.22;0.05;;;17.60;74.00;;;;;;4980516;28;20392;-85
2021/06/04 12:24:21;;;;;;;0.13;0.00;;;17.80;73.80;;;;;;4979132;28;20476;-85
2021/06/04 12:26:48;;;;;;;0.63;0.10;;;17.80;73.70;;;;;;4980425;28;20034;-84
2021/06/04 12:29:24;;;;;;;0.28;0.10;;;17.90;73.60;;;;;;4978026;28;20030;-86
2021/06/04 12:31:54;;;;;;;1.27;0.73;;;18.00;73.60;;;;;;4975383;28;20023;-85
2021/06/04 12:34:35;;;;;;;0.60;0.03;;;18.10;73.60;;;;;;4972644;28;20026;-86
2021/06/04 12:37:20;;;;;;;1.17;0.10;;;18.10;73.60;;;;;;4976411;28;20034;-86
2021/06/04 12:39:52;;;;;;;0.93;0.10;;;18.10;73.60;;;;;;4975942;28;20039;-85
2021/06/04 12:42:24;;;;;;;0.00;0.00;;;18.10;73.60;;;;;;4974430;28;20062;-84
2021/06/04 12:44:59;;;;;;;0.32;0.10;;;18.10;73.70;;;;;;4975624;28;20019;-85
2021/06/04 12:47:50;;;;;;;1.50;0.10;;;18.20;73.80;;;;;;4989842;28;20039;-85
2021/06/04 12:50:26;;;;;;;0.13;0.03;;;18.20;73.70;;;;;;4961882;28;20042;-84
2021/06/04 12:53:12;;;;;;;0.57;0.10;;;18.30;73.60;;;;;;4959403;28;20031;-85
2021/06/04 12:55:41;;;;;;;0.15;0.08;;;18.30;73.50;;;;;;5018690;28;20038;-85
2021/06/04 12:58:25;;;;;;;3.35;0.15;;;18.30;73.50;;;;;;4995051;28;20035;-84
2021/06/04 13:00:51;;;;;;;0.60;0.20;;;18.30;73.40;;;;;;4992258;28;20511;-85
2021/06/04 13:03:28;;;;;;;0.60;0.03;;;18.40;73.50;;;;;;4975273;28;20034;-85
2021/06/04 13:05:56;;;;;;;0.20;0.10;;;18.40;73.60;;;;;;4974283;28;20026;-85
2021/06/04 13:08:24;;;;;;;0.60;0.00;;;18.40;73.50;;;;;;4974421;28;20019;-84
2021/06/04 13:10:56;;;;;;;0.75;0.17;;;18.40;73.60;;;;;;4958964;28;20026;-84
2021/06/04 13:13:38;;;;;;;0.85;0.30;;;18.40;73.70;;;;;;4986830;28;20049;-83
2021/06/04 13:16:17;;;;;;;0.03;0.00;;;18.30;73.70;;;;;;4987779;28;20031;-85